createdAt,value
2022-09-21T00:03:56.386Z,3.33
2022-09-21T00:09:04.011Z,3.23
2022-09-21T00:14:11.714Z,2.13
2022-09-21T00:19:20.243Z,2.13
2022-09-21T00:24:25.141Z,2.27
2022-09-21T00:29:30.158Z,2.40
2022-09-21T00:34:37.694Z,2.07
2022-09-21T00:39:43.857Z,2.30
2022-09-21T00:44:48.846Z,2.03
2022-09-21T00:49:58.820Z,2.40
2022-09-21T00:55:12.703Z,2.13
2022-09-21T01:00:17.880Z,2.17
2022-09-21T01:05:26.465Z,2.20
2022-09-21T01:10:35.384Z,2.80
2022-09-21T01:15:48.719Z,3.37
2022-09-21T01:21:18.944Z,2.30
2022-09-21T01:26:32.016Z,2.90
2022-09-21T01:31:44.975Z,2.37
2022-09-21T01:36:51.979Z,2.40
2022-09-21T01:41:59.200Z,2.30
2022-09-21T01:47:10.215Z,2.20
2022-09-21T01:52:20.208Z,2.50
2022-09-21T01:57:37.451Z,2.40
2022-09-21T02:02:51.550Z,2.33
2022-09-21T02:07:57.792Z,1.97
2022-09-21T02:13:07.441Z,2.30
2022-09-21T02:18:24.479Z,2.30
2022-09-21T02:23:35.845Z,2.17
2022-09-21T02:28:47.380Z,2.40
2022-09-21T02:34:02.173Z,2.67
2022-09-21T02:39:13.004Z,2.50
2022-09-21T02:44:23.977Z,2.50
2022-09-21T02:49:37.611Z,2.67
2022-09-21T02:54:47.066Z,2.70
2022-09-21T02:59:52.354Z,2.53
2022-09-21T03:04:59.815Z,2.40
2022-09-21T03:10:05.099Z,2.33
2022-09-21T03:15:12.493Z,3.00
2022-09-21T03:20:20.928Z,2.73
2022-09-21T03:25:26.270Z,3.40
2022-09-21T03:30:32.412Z,3.13
2022-09-21T03:35:42.325Z,3.90
2022-09-21T03:40:49.121Z,3.80
2022-09-21T03:45:54.025Z,4.93
2022-09-21T03:51:02.064Z,4.47
2022-09-21T03:56:07.453Z,5.07
2022-09-21T04:01:12.431Z,4.73
2022-09-21T04:06:20.286Z,4.67
2022-09-21T04:11:25.574Z,4.30
2022-09-21T04:16:30.739Z,5.13
2022-09-21T04:21:38.455Z,4.80
2022-09-21T04:26:43.813Z,5.87
2022-09-21T04:31:50.831Z,5.70
2022-09-21T04:36:58.801Z,5.17
2022-09-21T04:42:03.713Z,5.30
2022-09-21T04:47:09.784Z,6.13
2022-09-21T04:52:19.242Z,6.03
2022-09-21T04:57:26.720Z,6.30
2022-09-21T05:02:31.617Z,5.87
2022-09-21T05:07:39.243Z,5.70
2022-09-21T05:12:44.732Z,6.37
2022-09-21T05:17:53.662Z,7.33
2022-09-21T05:23:05.015Z,6.33
2022-09-21T05:28:13.119Z,6.47
2022-09-21T05:33:25.421Z,7.07
2022-09-21T05:38:43.095Z,6.87
2022-09-21T05:43:50.332Z,6.80
2022-09-21T05:49:03.070Z,6.63
2022-09-21T05:54:17.180Z,7.73
2022-09-21T05:59:45.748Z,7.03
2022-09-21T06:04:52.059Z,7.03
2022-09-21T06:10:00.809Z,7.50
2022-09-21T06:15:06.379Z,7.13
2022-09-21T06:20:12.697Z,7.73
2022-09-21T06:25:20.476Z,7.20
2022-09-21T06:30:25.822Z,7.17
2022-09-21T06:35:34.129Z,7.13
2022-09-21T06:40:41.613Z,7.23
2022-09-21T06:45:47.079Z,7.10
2022-09-21T06:51:00.273Z,7.90
2022-09-21T06:56:11.077Z,7.80
2022-09-21T07:01:19.743Z,7.90
2022-09-21T07:06:37.281Z,9.37
2022-09-21T07:11:45.196Z,8.33
2022-09-21T07:16:50.628Z,8.93
2022-09-21T07:21:57.767Z,8.40
2022-09-21T07:27:10.998Z,8.70
2022-09-21T07:32:16.768Z,7.90
2022-09-21T07:37:23.969Z,8.00
2022-09-21T07:42:38.781Z,8.37
2022-09-21T07:47:58.259Z,7.30
2022-09-21T07:53:26.848Z,8.37
2022-09-21T08:04:24.275Z,7.47
2022-09-21T08:09:34.928Z,7.60
2022-09-21T08:14:44.588Z,7.80
2022-09-21T08:19:51.424Z,7.53
2022-09-21T08:24:57.237Z,6.23
2022-09-21T08:30:07.563Z,6.33
2022-09-21T08:35:13.062Z,6.37
2022-09-21T08:40:18.774Z,6.83
2022-09-21T08:45:34.106Z,5.43
2022-09-21T08:51:03.662Z,5.73
2022-09-21T08:56:53.737Z,4.43
2022-09-21T09:02:33.812Z,5.03
2022-09-21T09:08:12.287Z,3.77
2022-09-21T09:13:50.282Z,3.83
2022-09-21T09:19:03.634Z,3.80
2022-09-21T09:24:14.757Z,3.20
2022-09-21T09:29:27.927Z,3.27
2022-09-21T09:34:48.974Z,2.90
2022-09-21T09:40:08.983Z,2.80
2022-09-21T09:45:38.395Z,2.57
2022-09-21T09:51:03.284Z,2.63
2022-09-21T10:02:16.860Z,2.03
2022-09-21T10:07:41.188Z,1.97
2022-09-21T10:12:49.905Z,2.37
2022-09-21T10:18:06.250Z,2.03
2022-09-21T10:23:16.445Z,2.27
2022-09-21T10:28:26.718Z,2.07
2022-09-21T10:33:32.612Z,2.13
2022-09-21T10:38:38.116Z,2.00
2022-09-21T10:43:48.203Z,2.20
2022-09-21T10:48:55.798Z,3.67
2022-09-21T10:54:24.413Z,1.43
2022-09-21T10:59:39.414Z,1.53
2022-09-21T11:04:52.416Z,1.90
2022-09-21T11:10:07.711Z,1.60
2022-09-21T11:15:29.034Z,2.10
2022-09-21T11:20:44.377Z,2.13
2022-09-21T11:25:56.192Z,1.20
2022-09-21T11:31:24.133Z,1.60
2022-09-21T11:36:41.388Z,1.90
2022-09-21T11:42:01.888Z,1.90
2022-09-21T11:47:20.259Z,1.40
2022-09-21T11:52:39.259Z,1.50
2022-09-21T11:57:55.063Z,1.80
2022-09-21T12:03:36.877Z,1.50
2022-09-21T12:09:23.983Z,2.17
2022-09-21T12:20:57.990Z,1.33
2022-09-21T12:26:21.254Z,2.30
2022-09-21T12:31:38.065Z,1.90
2022-09-21T12:37:02.272Z,1.60
2022-09-21T12:42:28.425Z,1.50
2022-09-21T12:47:47.491Z,1.40
2022-09-21T12:52:58.917Z,1.47
2022-09-21T12:58:15.480Z,1.33
2022-09-21T13:03:28.817Z,1.60
2022-09-21T13:08:41.221Z,1.97
2022-09-21T13:13:53.066Z,1.60
2022-09-21T13:19:00.701Z,1.20
2022-09-21T13:24:35.847Z,0.93
2022-09-21T13:29:43.386Z,1.43
2022-09-21T13:34:52.145Z,1.20
2022-09-21T13:40:42.940Z,1.50
2022-09-21T13:46:00.521Z,1.47
2022-09-21T13:51:14.699Z,1.37
2022-09-21T13:56:22.931Z,1.10
2022-09-21T14:01:52.753Z,1.67
2022-09-21T14:07:00.657Z,1.50
2022-09-21T14:12:09.800Z,1.33
2022-09-21T14:17:40.101Z,1.60
2022-09-21T14:22:49.250Z,2.90
2022-09-21T14:27:54.949Z,1.93
2022-09-21T14:33:15.552Z,2.03
2022-09-21T14:38:24.972Z,1.70
2022-09-21T14:43:34.001Z,1.53
2022-09-21T14:48:53.046Z,1.70
2022-09-21T14:54:26.503Z,1.47
2022-09-21T14:59:48.191Z,1.40
2022-09-21T15:05:17.600Z,0.87
2022-09-21T15:10:41.102Z,1.50
2022-09-21T15:16:00.217Z,2.73
2022-09-21T15:21:08.505Z,2.83
2022-09-21T15:26:21.462Z,3.63
2022-09-21T15:31:27.010Z,10.13
2022-09-21T15:36:38.739Z,6.87
2022-09-21T15:41:50.566Z,22.90
2022-09-21T15:47:01.134Z,8.47
2022-09-21T15:52:19.425Z,8.47
2022-09-21T15:57:37.381Z,2.57
2022-09-21T16:02:44.590Z,1.10
2022-09-21T16:07:52.329Z,1.73
2022-09-21T16:13:26.990Z,1.77
2022-09-21T16:18:35.943Z,1.90
2022-09-21T16:23:45.323Z,2.37
2022-09-21T16:28:58.536Z,2.03
2022-09-21T16:34:22.647Z,2.27
2022-09-21T16:39:30.465Z,2.53
2022-09-21T16:44:41.114Z,2.57
2022-09-21T16:49:46.810Z,3.07
2022-09-21T16:54:54.949Z,3.10
2022-09-21T17:00:01.542Z,2.30
2022-09-21T17:05:11.145Z,3.60
2022-09-21T17:10:19.827Z,3.10
2022-09-21T17:15:25.663Z,5.00
2022-09-21T17:20:35.978Z,5.23
2022-09-21T17:25:45.014Z,6.60
2022-09-21T17:30:50.272Z,5.87
2022-09-21T17:35:56.723Z,5.23
2022-09-21T17:41:06.497Z,5.60
2022-09-21T17:46:21.777Z,5.43
2022-09-21T17:51:41.964Z,4.33
2022-09-21T17:56:57.260Z,4.17
2022-09-21T18:02:07.625Z,5.63
2022-09-21T18:07:16.096Z,3.90
2022-09-21T18:12:48.604Z,3.90
2022-09-21T18:18:06.002Z,4.30
2022-09-21T18:23:21.572Z,4.13
2022-09-21T18:28:44.157Z,4.27
2022-09-21T18:33:57.030Z,6.03
2022-09-21T18:39:25.372Z,8.90
2022-09-21T18:44:40.319Z,7.60
2022-09-21T18:50:00.384Z,6.73
2022-09-21T18:55:15.515Z,5.37
2022-09-21T19:00:30.010Z,6.00
2022-09-21T19:05:35.970Z,6.47
2022-09-21T19:10:47.553Z,7.40
2022-09-21T19:16:04.644Z,6.83
2022-09-21T19:21:22.046Z,7.13
2022-09-21T19:26:34.117Z,7.57
2022-09-21T19:31:41.975Z,6.33
2022-09-21T19:36:48.989Z,6.43
2022-09-21T19:42:05.256Z,6.40
2022-09-21T19:47:22.974Z,6.13
2022-09-21T19:52:33.035Z,7.03
2022-09-21T19:57:51.595Z,8.13
2022-09-21T20:03:09.182Z,6.93
2022-09-21T20:08:20.481Z,7.40
2022-09-21T20:13:36.142Z,7.00
2022-09-21T20:18:50.835Z,7.03
2022-09-21T20:24:02.172Z,6.90
2022-09-21T20:29:07.867Z,9.10
2022-09-21T20:34:15.660Z,8.13
2022-09-21T20:39:22.143Z,7.83
2022-09-21T20:44:27.067Z,7.33
2022-09-21T20:49:35.220Z,6.60
2022-09-21T20:54:40.110Z,6.33
2022-09-21T20:59:45.296Z,6.80
2022-09-21T21:04:52.804Z,6.60
2022-09-21T21:09:59.086Z,7.87
2022-09-21T21:15:04.030Z,6.53
2022-09-21T21:20:13.104Z,5.53
2022-09-21T21:25:18.518Z,5.00
2022-09-21T21:30:25.272Z,6.13
2022-09-21T21:35:33.042Z,6.47
2022-09-21T21:40:39.044Z,7.07
2022-09-21T21:45:44.061Z,6.23
2022-09-21T21:51:01.020Z,5.27
2022-09-21T21:56:08.305Z,6.10
2022-09-21T22:01:15.304Z,6.67
2022-09-21T22:06:23.746Z,5.83
2022-09-21T22:11:31.191Z,6.37
2022-09-21T22:16:38.002Z,6.63
2022-09-21T22:21:53.220Z,5.97
2022-09-21T22:26:59.142Z,6.30
2022-09-21T22:32:04.792Z,5.80
2022-09-21T22:37:12.294Z,6.40
2022-09-21T22:42:17.345Z,6.67
2022-09-21T22:47:22.254Z,7.30
2022-09-21T22:52:30.042Z,6.97
2022-09-21T22:57:35.104Z,6.80
2022-09-21T23:02:40.067Z,6.73
2022-09-21T23:07:47.544Z,6.57
2022-09-21T23:12:53.628Z,6.37
2022-09-21T23:17:58.589Z,6.43
2022-09-21T23:23:06.721Z,6.37
2022-09-21T23:28:11.655Z,6.20
2022-09-21T23:33:17.376Z,6.53
2022-09-21T23:38:24.944Z,6.50
2022-09-21T23:43:29.966Z,6.27
2022-09-21T23:48:35.316Z,5.57
2022-09-21T23:53:43.193Z,6.73
2022-09-21T23:58:49.495Z,8.10
